createdAt,value
2018-12-27T00:00:44.953Z,0
2018-12-27T00:01:45.005Z,0
2018-12-27T00:02:44.926Z,0
2018-12-27T00:03:44.919Z,0
2018-12-27T00:04:44.905Z,0
2018-12-27T00:05:44.899Z,0
2018-12-27T00:06:44.895Z,0
2018-12-27T00:07:44.876Z,0
2018-12-27T00:08:44.870Z,0
2018-12-27T00:09:44.852Z,0
2018-12-27T00:10:44.840Z,0
2018-12-27T00:11:44.831Z,0
2018-12-27T00:12:44.823Z,0
2018-12-27T00:13:44.812Z,0
2018-12-27T00:14:44.791Z,0
2018-12-27T00:15:44.781Z,0
2018-12-27T00:16:44.778Z,0
2018-12-27T00:17:44.782Z,0
2018-12-27T00:18:44.747Z,0
2018-12-27T00:19:44.739Z,0
2018-12-27T00:20:44.721Z,0
2018-12-27T00:21:44.716Z,0
2018-12-27T00:22:44.701Z,0
2018-12-27T00:23:44.692Z,0
2018-12-27T00:24:44.887Z,0
2018-12-27T00:25:44.664Z,0
2018-12-27T00:26:44.660Z,0
2018-12-27T00:27:44.645Z,0
2018-12-27T00:28:44.630Z,0
2018-12-27T00:29:44.626Z,0
2018-12-27T00:30:44.613Z,0
2018-12-27T00:31:44.603Z,0
2018-12-27T00:32:44.596Z,0
2018-12-27T00:33:44.578Z,0
2018-12-27T00:34:44.568Z,0
2018-12-27T00:35:44.552Z,0
2018-12-27T00:36:44.545Z,0
2018-12-27T00:37:44.567Z,0
2018-12-27T00:38:44.521Z,0
2018-12-27T00:39:44.760Z,0
2018-12-27T00:40:44.498Z,0
2018-12-27T00:41:44.490Z,0
2018-12-27T00:42:44.475Z,0
2018-12-27T00:43:44.463Z,0
2018-12-27T00:44:44.453Z,0
2018-12-27T00:45:44.440Z,0
2018-12-27T00:46:44.433Z,0
2018-12-27T00:47:44.420Z,0
2018-12-27T00:48:44.401Z,0
2018-12-27T00:49:44.399Z,0
2018-12-27T00:50:44.388Z,0
2018-12-27T00:51:44.370Z,0
2018-12-27T00:52:44.358Z,0
2018-12-27T00:53:44.434Z,0
2018-12-27T00:54:44.332Z,0
2018-12-27T00:55:44.323Z,0
2018-12-27T00:56:44.309Z,0
2018-12-27T00:57:44.304Z,0
2018-12-27T00:58:44.293Z,0
2018-12-27T00:59:44.279Z,0
2018-12-27T01:00:44.278Z,0
2018-12-27T01:01:44.260Z,0
2018-12-27T01:02:44.247Z,0
2018-12-27T01:03:44.238Z,0
2018-12-27T01:04:44.220Z,0
2018-12-27T01:05:44.207Z,0
2018-12-27T01:06:44.193Z,0
2018-12-27T01:07:44.182Z,0
2018-12-27T01:08:44.171Z,0
2018-12-27T01:09:44.161Z,0
2018-12-27T01:10:44.150Z,0
2018-12-27T01:11:44.145Z,0
2018-12-27T01:12:44.131Z,0
2018-12-27T01:13:44.120Z,0
2018-12-27T01:14:44.114Z,0
2018-12-27T01:15:44.162Z,0
2018-12-27T01:16:44.094Z,0
2018-12-27T01:17:44.069Z,0
2018-12-27T01:18:44.057Z,0
2018-12-27T01:19:44.052Z,0
2018-12-27T01:20:44.039Z,0
2018-12-27T01:21:44.028Z,0
2018-12-27T01:22:44.019Z,0
2018-12-27T01:23:44.004Z,0
2018-12-27T01:24:43.992Z,0
2018-12-27T01:25:43.985Z,0
2018-12-27T01:26:43.966Z,0
2018-12-27T01:27:43.955Z,0
2018-12-27T01:28:43.948Z,0
2018-12-27T01:29:43.928Z,0
2018-12-27T01:30:43.935Z,0
2018-12-27T01:31:50.450Z,0
2018-12-27T01:32:43.897Z,0
2018-12-27T01:33:43.888Z,0
2018-12-27T01:34:43.881Z,0
2018-12-27T01:35:43.866Z,0
2018-12-27T01:36:43.852Z,0
2018-12-27T01:37:43.857Z,0
2018-12-27T01:38:43.829Z,0
2018-12-27T01:39:43.578Z,0
2018-12-27T01:40:43.815Z,0
2018-12-27T01:41:43.804Z,0
2018-12-27T01:42:43.780Z,0
2018-12-27T01:43:43.778Z,0
2018-12-27T01:44:43.758Z,0
2018-12-27T01:45:43.749Z,0
2018-12-27T01:46:43.782Z,0
2018-12-27T01:47:43.728Z,0
2018-12-27T01:48:43.715Z,0
2018-12-27T01:49:43.463Z,0
2018-12-27T01:50:43.692Z,0
2018-12-27T01:51:43.681Z,0
2018-12-27T01:52:43.667Z,0
2018-12-27T01:53:43.658Z,0
2018-12-27T01:54:43.644Z,0
2018-12-27T01:55:43.635Z,0
2018-12-27T01:56:43.622Z,0
2018-12-27T01:57:43.612Z,0
2018-12-27T01:58:43.604Z,0
2018-12-27T01:59:43.591Z,0
2018-12-27T02:00:43.577Z,0
2018-12-27T02:01:43.574Z,0
2018-12-27T02:02:43.553Z,0
2018-12-27T02:03:43.542Z,0
2018-12-27T02:04:43.530Z,0
2018-12-27T02:05:43.524Z,0
2018-12-27T02:06:43.514Z,0
2018-12-27T02:07:43.506Z,0
2018-12-27T02:08:43.243Z,0
2018-12-27T02:09:43.478Z,0
2018-12-27T02:10:43.465Z,0
2018-12-27T02:11:43.450Z,0
2018-12-27T02:12:43.439Z,0
2018-12-27T02:13:43.430Z,0
2018-12-27T02:14:43.419Z,0
2018-12-27T02:15:43.406Z,0
2018-12-27T02:16:43.393Z,0
2018-12-27T02:17:43.389Z,0
2018-12-27T02:18:43.413Z,0
2018-12-27T02:19:43.362Z,0
2018-12-27T02:20:43.353Z,0
2018-12-27T02:21:43.339Z,0
2018-12-27T02:22:43.332Z,0
2018-12-27T02:23:43.323Z,0
2018-12-27T02:24:43.301Z,0
2018-12-27T02:25:43.293Z,0
2018-12-27T02:26:43.284Z,0
2018-12-27T02:27:43.276Z,0
2018-12-27T02:28:43.259Z,0
2018-12-27T02:29:43.247Z,0
2018-12-27T02:30:43.011Z,0
2018-12-27T02:31:44.375Z,0
2018-12-27T02:32:43.233Z,0
2018-12-27T02:33:45.029Z,0
2018-12-27T02:34:43.199Z,0
2018-12-27T02:35:43.184Z,0
2018-12-27T02:36:43.179Z,0
2018-12-27T02:37:43.166Z,0
2018-12-27T02:38:43.144Z,0
2018-12-27T02:39:44.959Z,0
2018-12-27T02:40:43.134Z,0
2018-12-27T02:41:43.114Z,0
2018-12-27T02:42:43.126Z,0
2018-12-27T02:43:43.093Z,0
2018-12-27T02:44:43.080Z,0
2018-12-27T02:45:43.071Z,0
2018-12-27T02:46:43.073Z,0
2018-12-27T02:47:43.048Z,0
2018-12-27T02:48:43.030Z,0
2018-12-27T02:49:43.027Z,0
2018-12-27T02:50:43.021Z,0
2018-12-27T02:51:43.013Z,0
2018-12-27T02:52:42.984Z,0
2018-12-27T02:53:42.973Z,0
2018-12-27T02:54:42.972Z,0
2018-12-27T02:55:42.956Z,0
2018-12-27T02:56:42.946Z,0
2018-12-27T02:57:42.929Z,0
2018-12-27T02:58:42.918Z,0
2018-12-27T02:59:42.904Z,0
2018-12-27T03:00:42.896Z,0
2018-12-27T03:01:42.920Z,0
2018-12-27T03:02:42.878Z,0
2018-12-27T03:03:50.866Z,0
2018-12-27T03:04:42.857Z,0
2018-12-27T03:05:42.914Z,0
2018-12-27T03:06:42.832Z,0
2018-12-27T03:07:42.817Z,0
2018-12-27T03:08:42.821Z,0
2018-12-27T03:09:42.802Z,0
2018-12-27T03:10:42.782Z,0
2018-12-27T03:11:42.769Z,0
2018-12-27T03:12:42.762Z,0
2018-12-27T03:13:42.748Z,0
2018-12-27T03:14:42.736Z,0
2018-12-27T03:15:42.732Z,0
2018-12-27T03:16:42.711Z,0
2018-12-27T03:17:42.699Z,0
2018-12-27T03:18:42.750Z,0
2018-12-27T03:19:42.686Z,0
2018-12-27T03:20:42.669Z,0
2018-12-27T03:21:42.740Z,0
2018-12-27T03:22:42.730Z,0
2018-12-27T03:23:42.633Z,0
2018-12-27T03:24:42.622Z,0
2018-12-27T03:25:42.616Z,0
2018-12-27T03:26:42.607Z,0
2018-12-27T03:27:42.587Z,0
2018-12-27T03:28:42.573Z,0
2018-12-27T03:29:42.571Z,0
2018-12-27T03:30:42.725Z,0
2018-12-27T03:31:42.586Z,0
2018-12-27T03:32:42.673Z,0
2018-12-27T03:33:42.519Z,0
2018-12-27T03:34:42.507Z,0
2018-12-27T03:35:42.496Z,0
2018-12-27T03:36:42.478Z,0
2018-12-27T03:37:42.473Z,0
2018-12-27T03:38:42.454Z,0
2018-12-27T03:39:42.516Z,0
2018-12-27T03:40:42.440Z,0
2018-12-27T03:41:42.419Z,0
2018-12-27T03:42:42.409Z,0
2018-12-27T03:43:42.151Z,0
2018-12-27T03:44:42.391Z,0
2018-12-27T03:45:42.377Z,0
2018-12-27T03:46:42.373Z,0
2018-12-27T03:47:42.359Z,0
2018-12-27T03:48:42.345Z,0
2018-12-27T03:49:42.327Z,0
2018-12-27T03:50:42.316Z,0
2018-12-27T03:51:42.319Z,0
2018-12-27T03:52:42.302Z,0
2018-12-27T03:53:42.285Z,0
2018-12-27T03:54:42.274Z,0
2018-12-27T03:55:42.281Z,0
2018-12-27T03:56:42.245Z,0
2018-12-27T03:57:42.250Z,0
2018-12-27T03:58:42.222Z,0
2018-12-27T03:59:42.224Z,0
2018-12-27T04:00:42.221Z,0
2018-12-27T04:01:42.183Z,0
2018-12-27T04:02:42.178Z,0
2018-12-27T04:03:42.166Z,0
2018-12-27T04:04:42.171Z,0
2018-12-27T04:05:42.143Z,0
2018-12-27T04:06:42.131Z,0
2018-12-27T04:07:42.195Z,0
2018-12-27T04:08:42.110Z,0
2018-12-27T04:09:42.102Z,0
2018-12-27T04:10:42.086Z,0
2018-12-27T04:11:42.094Z,0
2018-12-27T04:12:42.071Z,0
2018-12-27T04:13:42.051Z,0
2018-12-27T04:14:42.051Z,0
2018-12-27T04:15:42.028Z,0
2018-12-27T04:16:42.014Z,0
2018-12-27T04:17:42.010Z,0
2018-12-27T04:18:42.002Z,0
2018-12-27T04:19:41.989Z,0
2018-12-27T04:20:41.985Z,0
2018-12-27T04:21:41.957Z,0
2018-12-27T04:22:41.740Z,0
2018-12-27T04:23:41.978Z,0
2018-12-27T04:24:41.925Z,0
2018-12-27T04:25:41.905Z,0
2018-12-27T04:26:41.940Z,0
2018-12-27T04:27:41.891Z,0
2018-12-27T04:28:41.877Z,0
2018-12-27T04:29:41.875Z,0
2018-12-27T04:30:41.858Z,0
2018-12-27T04:31:41.834Z,0
2018-12-27T04:32:41.840Z,0
2018-12-27T04:33:41.818Z,0
2018-12-27T04:34:41.805Z,0
2018-12-27T04:35:41.794Z,0
2018-12-27T04:36:41.791Z,0
2018-12-27T04:37:41.766Z,0
2018-12-27T04:38:41.764Z,0
2018-12-27T04:39:41.750Z,0
2018-12-27T04:40:41.734Z,0
2018-12-27T04:41:41.732Z,0
2018-12-27T04:42:41.722Z,0
2018-12-27T04:43:41.703Z,0
2018-12-27T04:44:41.687Z,0
2018-12-27T04:45:41.675Z,0
2018-12-27T04:46:41.667Z,0
2018-12-27T04:47:41.662Z,0
2018-12-27T04:48:41.665Z,0
2018-12-27T04:49:41.627Z,0
2018-12-27T04:50:41.627Z,0
2018-12-27T04:51:41.612Z,0
2018-12-27T04:52:41.599Z,0
2018-12-27T04:53:41.588Z,0
2018-12-27T04:54:41.570Z,0
2018-12-27T04:55:41.565Z,0
2018-12-27T04:56:41.546Z,0
2018-12-27T04:57:41.549Z,0
2018-12-27T04:58:41.526Z,0
2018-12-27T04:59:41.514Z,0
2018-12-27T05:00:41.526Z,0
2018-12-27T05:01:41.501Z,0
2018-12-27T05:02:41.520Z,0
2018-12-27T05:03:41.476Z,0
2018-12-27T05:04:41.457Z,0
2018-12-27T05:05:41.447Z,0
2018-12-27T05:06:41.434Z,0
2018-12-27T05:07:41.204Z,0
2018-12-27T05:08:41.431Z,0
2018-12-27T05:09:41.421Z,0
2018-12-27T05:10:41.394Z,0
2018-12-27T05:11:41.377Z,0
2018-12-27T05:12:41.361Z,0
2018-12-27T05:13:41.363Z,0
2018-12-27T05:14:41.344Z,0
2018-12-27T05:15:41.340Z,0
2018-12-27T05:16:41.315Z,0
2018-12-27T05:17:41.060Z,0
2018-12-27T05:18:41.294Z,0
2018-12-27T05:19:41.281Z,0
2018-12-27T05:20:41.278Z,0
2018-12-27T05:21:41.264Z,0
2018-12-27T05:22:41.244Z,0
2018-12-27T05:23:41.232Z,0
2018-12-27T05:24:41.232Z,0
2018-12-27T05:25:41.213Z,0
2018-12-27T05:26:41.221Z,0
2018-12-27T05:27:41.184Z,0
2018-12-27T05:28:41.261Z,0
2018-12-27T05:29:41.162Z,0
2018-12-27T05:30:41.145Z,0
2018-12-27T05:31:41.137Z,0
2018-12-27T05:32:41.151Z,0
2018-12-27T05:33:41.131Z,0
2018-12-27T05:34:41.107Z,0
2018-12-27T05:35:41.091Z,0
2018-12-27T05:36:41.076Z,0
2018-12-27T05:37:41.067Z,0
2018-12-27T05:38:41.061Z,0
2018-12-27T05:39:41.053Z,0
2018-12-27T05:40:41.032Z,0
2018-12-27T05:41:41.026Z,0
2018-12-27T05:42:41.018Z,0
2018-12-27T05:43:41.006Z,0
2018-12-27T05:44:40.987Z,0
2018-12-27T05:45:40.985Z,0
2018-12-27T05:46:40.965Z,0
2018-12-27T05:47:40.969Z,0
2018-12-27T05:48:40.941Z,0
2018-12-27T05:49:41.311Z,0
2018-12-27T05:50:40.920Z,0
2018-12-27T05:51:40.905Z,0
2018-12-27T05:52:40.895Z,0
2018-12-27T05:53:40.876Z,0
2018-12-27T05:54:40.866Z,0
2018-12-27T05:55:44.044Z,0
2018-12-27T05:56:40.847Z,0
2018-12-27T05:57:40.835Z,0
2018-12-27T05:58:40.830Z,0
2018-12-27T05:59:40.806Z,0
2018-12-27T06:00:41.241Z,0
2018-12-27T06:01:40.793Z,0
2018-12-27T06:02:40.775Z,0
2018-12-27T06:03:40.775Z,0
2018-12-27T06:04:43.505Z,0
2018-12-27T06:05:40.744Z,0
2018-12-27T06:06:40.728Z,0
2018-12-27T06:07:40.727Z,0
2018-12-27T06:08:40.788Z,0
2018-12-27T06:09:40.704Z,0
2018-12-27T06:10:40.692Z,0
2018-12-27T06:11:40.672Z,0
2018-12-27T06:12:40.657Z,0
2018-12-27T06:13:40.649Z,0
2018-12-27T06:14:40.630Z,0
2018-12-27T06:15:40.620Z,0
2018-12-27T06:16:40.615Z,0
2018-12-27T06:17:40.602Z,0
2018-12-27T06:18:40.585Z,0
2018-12-27T06:19:40.576Z,0
2018-12-27T06:20:40.563Z,0
2018-12-27T06:21:40.556Z,0
2018-12-27T06:22:40.566Z,0
2018-12-27T06:23:40.570Z,0
2018-12-27T06:24:40.518Z,0
2018-12-27T06:25:40.533Z,0
2018-12-27T06:26:40.494Z,0
2018-12-27T06:27:40.485Z,0
2018-12-27T06:28:40.468Z,0
2018-12-27T06:29:40.464Z,0
2018-12-27T06:30:40.444Z,0
2018-12-27T06:31:40.436Z,0
2018-12-27T06:32:40.422Z,0
2018-12-27T06:33:40.411Z,0
2018-12-27T06:34:46.148Z,0
2018-12-27T06:35:40.401Z,0
2018-12-27T06:36:40.379Z,0
2018-12-27T06:37:40.371Z,0
2018-12-27T06:38:40.356Z,0
2018-12-27T06:39:40.339Z,0
2018-12-27T06:40:40.331Z,0
2018-12-27T06:41:40.322Z,0
2018-12-27T06:42:40.309Z,0
2018-12-27T06:43:40.291Z,0
2018-12-27T06:44:40.281Z,0
2018-12-27T06:45:40.321Z,0
2018-12-27T06:46:40.263Z,0
2018-12-27T06:47:40.007Z,0
2018-12-27T06:48:40.236Z,0
2018-12-27T06:49:40.222Z,0
2018-12-27T06:50:40.209Z,0
2018-12-27T06:51:40.193Z,0
2018-12-27T06:52:40.184Z,0
2018-12-27T06:53:40.241Z,0
2018-12-27T06:54:40.164Z,0
2018-12-27T06:55:40.144Z,0
2018-12-27T06:56:39.895Z,0
2018-12-27T06:57:40.133Z,0
2018-12-27T06:58:47.138Z,0
2018-12-27T06:59:40.257Z,0
2018-12-27T07:00:40.090Z,0
2018-12-27T07:01:40.076Z,0
2018-12-27T07:02:40.066Z,0
2018-12-27T07:03:40.053Z,0
2018-12-27T07:04:40.039Z,0
2018-12-27T07:05:40.024Z,0
2018-12-27T07:06:40.018Z,0
2018-12-27T07:07:40.004Z,0
2018-12-27T07:08:39.992Z,0
2018-12-27T07:09:39.972Z,0
2018-12-27T07:10:39.730Z,5
2018-12-27T07:11:39.948Z,5
2018-12-27T07:12:39.935Z,5
2018-12-27T07:13:39.920Z,5
2018-12-27T07:14:39.910Z,5
2018-12-27T07:15:39.904Z,5
2018-12-27T07:16:39.882Z,5
2018-12-27T07:17:39.874Z,5
2018-12-27T07:18:39.862Z,5
2018-12-27T07:19:39.937Z,5
2018-12-27T07:20:39.836Z,10
2018-12-27T07:21:39.827Z,10
2018-12-27T07:22:39.862Z,10
2018-12-27T07:23:39.794Z,10
2018-12-27T07:24:39.786Z,10
2018-12-27T07:25:39.773Z,10
2018-12-27T07:26:39.752Z,10
2018-12-27T07:27:39.816Z,10
2018-12-27T07:28:39.741Z,10
2018-12-27T07:29:39.719Z,10
2018-12-27T07:30:39.705Z,15
2018-12-27T07:31:39.696Z,15
2018-12-27T07:32:39.693Z,15
2018-12-27T07:33:39.698Z,15
2018-12-27T07:34:39.658Z,15
2018-12-27T07:35:39.639Z,15
2018-12-27T07:36:39.629Z,15
2018-12-27T07:37:39.617Z,15
2018-12-27T07:38:39.604Z,15
2018-12-27T07:39:39.589Z,15
2018-12-27T07:40:39.579Z,15
2018-12-27T07:41:39.565Z,15
2018-12-27T07:42:39.553Z,15
2018-12-27T07:43:39.544Z,15
2018-12-27T07:44:39.533Z,20
2018-12-27T07:45:39.519Z,15
2018-12-27T07:46:39.559Z,20
2018-12-27T07:47:39.493Z,20
2018-12-27T07:48:39.475Z,25
2018-12-27T07:49:39.468Z,25
2018-12-27T07:50:39.458Z,25
2018-12-27T07:51:39.438Z,25
2018-12-27T07:52:39.426Z,30
2018-12-27T07:53:39.412Z,30
2018-12-27T07:54:39.401Z,35
2018-12-27T07:55:39.456Z,45
2018-12-27T07:56:39.378Z,60
2018-12-27T07:57:39.364Z,65
2018-12-27T07:58:39.348Z,65
2018-12-27T07:59:39.337Z,65
2018-12-27T08:00:39.337Z,65
2018-12-27T08:01:39.317Z,75
2018-12-27T08:02:39.067Z,80
2018-12-27T08:03:39.294Z,80
2018-12-27T08:04:39.279Z,75
2018-12-27T08:05:39.269Z,70
2018-12-27T08:06:39.261Z,70
2018-12-27T08:07:39.247Z,70
2018-12-27T08:08:39.235Z,75
2018-12-27T08:09:40.712Z,80
2018-12-27T08:10:39.209Z,90
2018-12-27T08:11:39.194Z,100
2018-12-27T08:12:39.195Z,105
2018-12-27T08:13:39.165Z,110
2018-12-27T08:14:39.156Z,110
2018-12-27T08:15:39.143Z,115
2018-12-27T08:16:39.131Z,120
2018-12-27T08:17:39.120Z,125
2018-12-27T08:18:39.105Z,125
2018-12-27T08:19:39.095Z,125
2018-12-27T08:20:39.091Z,120
2018-12-27T08:21:39.145Z,120
2018-12-27T08:22:39.061Z,105
2018-12-27T08:23:39.053Z,100
2018-12-27T08:24:39.035Z,100
2018-12-27T08:25:39.083Z,100
2018-12-27T08:26:39.032Z,95
2018-12-27T08:27:39.257Z,90
2018-12-27T08:28:38.986Z,90
2018-12-27T08:29:38.987Z,100
2018-12-27T08:30:38.965Z,95
2018-12-27T08:31:38.956Z,85
2018-12-27T08:32:38.939Z,85
2018-12-27T08:33:38.930Z,85
2018-12-27T08:34:39.602Z,75
2018-12-27T08:35:38.904Z,65
2018-12-27T08:36:38.902Z,65
2018-12-27T08:37:38.890Z,60
2018-12-27T08:38:38.870Z,50
2018-12-27T08:39:38.860Z,45
2018-12-27T08:40:38.909Z,45
2018-12-27T08:41:38.833Z,45
2018-12-27T08:42:38.822Z,55
2018-12-27T08:43:38.813Z,60
2018-12-27T08:44:38.800Z,60
2018-12-27T08:45:38.787Z,60
2018-12-27T08:46:38.539Z,60
2018-12-27T08:47:38.767Z,60
2018-12-27T08:48:38.750Z,65
2018-12-27T08:49:38.742Z,55
2018-12-27T08:50:38.722Z,60
2018-12-27T08:51:38.716Z,60
2018-12-27T08:52:38.706Z,60
2018-12-27T08:53:38.690Z,60
2018-12-27T08:54:38.682Z,60
2018-12-27T08:55:38.667Z,60
2018-12-27T08:56:38.660Z,65
2018-12-27T08:57:38.639Z,65
2018-12-27T08:58:38.635Z,65
2018-12-27T08:59:38.625Z,65
2018-12-27T09:00:38.367Z,65
2018-12-27T09:01:38.602Z,60
2018-12-27T09:02:38.350Z,60
2018-12-27T09:03:38.576Z,60
2018-12-27T09:04:38.564Z,65
2018-12-27T09:05:38.548Z,70
2018-12-27T09:06:38.567Z,70
2018-12-27T09:07:38.524Z,65
2018-12-27T09:08:38.812Z,60
2018-12-27T09:09:38.504Z,65
2018-12-27T09:10:38.492Z,65
2018-12-27T09:11:38.474Z,60
2018-12-27T09:12:38.613Z,60
2018-12-27T09:13:38.456Z,60
2018-12-27T09:14:38.444Z,65
2018-12-27T09:15:38.429Z,60
2018-12-27T09:16:38.417Z,60
2018-12-27T09:17:38.407Z,60
2018-12-27T09:18:38.396Z,60
2018-12-27T09:19:38.391Z,60
2018-12-27T09:20:38.371Z,65
2018-12-27T09:21:38.357Z,65
2018-12-27T09:22:38.351Z,60
2018-12-27T09:23:38.337Z,60
2018-12-27T09:24:38.393Z,60
2018-12-27T09:25:38.315Z,60
2018-12-27T09:26:38.300Z,60
2018-12-27T09:27:38.286Z,60
2018-12-27T09:28:38.274Z,55
2018-12-27T09:29:38.514Z,55
2018-12-27T09:30:38.250Z,55
2018-12-27T09:31:39.232Z,60
2018-12-27T09:32:38.231Z,60
2018-12-27T09:33:38.228Z,55
2018-12-27T09:34:38.210Z,55
2018-12-27T09:35:38.195Z,55
2018-12-27T09:36:38.181Z,55
2018-12-27T09:37:38.173Z,50
2018-12-27T09:38:38.158Z,55
2018-12-27T09:39:38.150Z,55
2018-12-27T09:40:38.149Z,55
2018-12-27T09:41:38.132Z,65
2018-12-27T09:42:38.121Z,60
2018-12-27T09:43:38.138Z,55
2018-12-27T09:44:38.094Z,55
2018-12-27T09:45:38.075Z,55
2018-12-27T09:46:38.075Z,55
2018-12-27T09:47:38.057Z,55
2018-12-27T09:48:38.045Z,55
2018-12-27T09:49:38.030Z,60
2018-12-27T09:50:38.015Z,65
2018-12-27T09:51:38.740Z,65
2018-12-27T09:52:38.011Z,60
2018-12-27T09:53:37.988Z,65
2018-12-27T09:54:37.975Z,65
2018-12-27T09:55:37.958Z,70
2018-12-27T09:56:37.945Z,65
2018-12-27T09:57:37.932Z,70
2018-12-27T09:58:37.921Z,65
2018-12-27T09:59:37.933Z,60
2018-12-27T10:00:37.927Z,55
2018-12-27T10:01:37.891Z,55
2018-12-27T10:02:37.889Z,60
2018-12-27T10:03:37.865Z,60
2018-12-27T10:04:37.862Z,55
2018-12-27T10:05:43.472Z,60
2018-12-27T10:06:37.831Z,60
2018-12-27T10:07:37.816Z,55
2018-12-27T10:08:37.810Z,55
2018-12-27T10:09:37.790Z,55
2018-12-27T10:10:37.782Z,60
2018-12-27T10:11:37.772Z,55
2018-12-27T10:12:37.750Z,55
2018-12-27T10:13:37.745Z,55
2018-12-27T10:14:37.734Z,55
2018-12-27T10:15:39.522Z,55
2018-12-27T10:16:37.719Z,50
2018-12-27T10:17:37.701Z,50
2018-12-27T10:18:37.696Z,50
2018-12-27T10:19:37.673Z,50
2018-12-27T10:20:37.661Z,55
2018-12-27T10:21:37.410Z,60
2018-12-27T10:22:37.953Z,65
2018-12-27T10:23:37.631Z,65
2018-12-27T10:24:37.616Z,65
2018-12-27T10:25:37.601Z,60
2018-12-27T10:26:37.599Z,60
2018-12-27T10:27:37.613Z,70
2018-12-27T10:28:37.565Z,65
2018-12-27T10:29:37.562Z,65
2018-12-27T10:30:37.542Z,75
2018-12-27T10:31:37.552Z,75
2018-12-27T10:32:37.591Z,75
2018-12-27T10:33:37.512Z,75
2018-12-27T10:34:37.499Z,70
2018-12-27T10:35:43.559Z,80
2018-12-27T10:36:37.469Z,85
2018-12-27T10:37:37.458Z,80
2018-12-27T10:38:37.449Z,90
2018-12-27T10:39:37.442Z,95
2018-12-27T10:40:37.439Z,100
2018-12-27T10:41:37.410Z,95
2018-12-27T10:42:37.405Z,90
2018-12-27T10:43:37.395Z,90
2018-12-27T10:44:37.381Z,85
2018-12-27T10:45:37.362Z,85
2018-12-27T10:46:37.354Z,85
2018-12-27T10:47:37.339Z,80
2018-12-27T10:48:37.329Z,80
2018-12-27T10:49:37.381Z,75
2018-12-27T10:50:37.305Z,80
2018-12-27T10:51:37.296Z,85
2018-12-27T10:52:37.285Z,80
2018-12-27T10:53:37.352Z,70
2018-12-27T10:54:37.264Z,70
2018-12-27T10:55:37.264Z,70
2018-12-27T10:56:37.239Z,70
2018-12-27T10:57:39.548Z,70
2018-12-27T10:58:37.212Z,70
2018-12-27T10:59:37.215Z,65
2018-12-27T11:00:37.190Z,65
2018-12-27T11:01:37.177Z,65
2018-12-27T11:02:37.170Z,65
2018-12-27T11:03:40.194Z,65
2018-12-27T11:04:37.148Z,70
2018-12-27T11:05:37.136Z,65
2018-12-27T11:06:37.120Z,65
2018-12-27T11:07:37.108Z,65
2018-12-27T11:08:37.104Z,65
2018-12-27T11:09:37.091Z,70
2018-12-27T11:10:37.075Z,65
2018-12-27T11:11:37.064Z,65
2018-12-27T11:12:37.064Z,65
2018-12-27T11:13:37.061Z,70
2018-12-27T11:14:37.033Z,70
2018-12-27T11:15:37.050Z,70
2018-12-27T11:16:37.009Z,75
2018-12-27T11:17:37.018Z,75
2018-12-27T11:18:38.016Z,65
2018-12-27T11:19:36.971Z,70
2018-12-27T11:20:36.957Z,70
2018-12-27T11:21:36.950Z,70
2018-12-27T11:22:36.937Z,70
2018-12-27T11:23:36.927Z,70
2018-12-27T11:24:36.920Z,70
2018-12-27T11:25:36.901Z,70
2018-12-27T11:26:36.899Z,65
2018-12-27T11:27:36.882Z,65
2018-12-27T11:28:36.865Z,70
2018-12-27T11:29:36.857Z,75
2018-12-27T11:30:36.845Z,80
2018-12-27T11:31:36.834Z,75
2018-12-27T11:32:36.825Z,70
2018-12-27T11:33:36.813Z,75
2018-12-27T11:34:36.804Z,70
2018-12-27T11:35:36.787Z,65
2018-12-27T11:36:36.779Z,70
2018-12-27T11:37:36.778Z,75
2018-12-27T11:38:36.757Z,70
2018-12-27T11:39:36.744Z,75
2018-12-27T11:40:36.729Z,85
2018-12-27T11:41:36.722Z,75
2018-12-27T11:42:36.704Z,75
2018-12-27T11:43:36.703Z,70
2018-12-27T11:44:36.681Z,75
2018-12-27T11:45:36.678Z,80
2018-12-27T11:46:36.669Z,90
2018-12-27T11:47:36.649Z,85
2018-12-27T11:48:36.649Z,100
2018-12-27T11:49:36.627Z,95
2018-12-27T11:50:36.616Z,105
2018-12-27T11:51:36.604Z,95
2018-12-27T11:52:36.595Z,100
2018-12-27T11:53:36.590Z,100
2018-12-27T11:54:36.594Z,105
2018-12-27T11:55:36.558Z,110
2018-12-27T11:56:36.546Z,95
2018-12-27T11:57:36.551Z,90
2018-12-27T11:58:36.605Z,105
2018-12-27T11:59:36.520Z,95
2018-12-27T12:00:36.503Z,95
2018-12-27T12:01:36.495Z,95
2018-12-27T12:02:40.676Z,90
2018-12-27T12:03:36.470Z,80
2018-12-27T12:04:36.465Z,80
2018-12-27T12:05:36.520Z,75
2018-12-27T12:06:36.437Z,70
2018-12-27T12:07:36.433Z,75
2018-12-27T12:08:36.416Z,80
2018-12-27T12:09:36.402Z,70
2018-12-27T12:10:36.391Z,70
2018-12-27T12:11:36.400Z,65
2018-12-27T12:12:36.375Z,65
2018-12-27T12:13:36.356Z,65
2018-12-27T12:14:36.350Z,70
2018-12-27T12:15:36.338Z,70
2018-12-27T12:16:36.323Z,65
2018-12-27T12:17:36.315Z,65
2018-12-27T12:18:36.302Z,65
2018-12-27T12:19:36.290Z,65
2018-12-27T12:20:36.282Z,65
2018-12-27T12:21:36.271Z,70
2018-12-27T12:22:36.256Z,70
2018-12-27T12:23:36.260Z,65
2018-12-27T12:24:36.252Z,60
2018-12-27T12:25:36.230Z,65
2018-12-27T12:26:36.213Z,55
2018-12-27T12:27:36.206Z,55
2018-12-27T12:28:36.197Z,55
2018-12-27T12:29:36.188Z,50
2018-12-27T12:30:36.172Z,50
2018-12-27T12:31:36.162Z,60
2018-12-27T12:32:36.151Z,60
2018-12-27T12:33:36.139Z,55
2018-12-27T12:34:36.126Z,60
2018-12-27T12:35:36.120Z,65
2018-12-27T12:36:36.108Z,55
2018-12-27T12:37:36.095Z,60
2018-12-27T12:38:36.084Z,65
2018-12-27T12:39:36.072Z,55
2018-12-27T12:40:36.066Z,50
2018-12-27T12:41:35.812Z,50
2018-12-27T12:42:42.534Z,55
2018-12-27T12:43:35.790Z,55
2018-12-27T12:44:36.024Z,60
2018-12-27T12:45:36.015Z,55
2018-12-27T12:46:36.000Z,55
2018-12-27T12:47:35.989Z,50
2018-12-27T12:48:35.974Z,45
2018-12-27T12:49:35.727Z,45
2018-12-27T12:50:35.953Z,50
2018-12-27T12:51:35.962Z,45
2018-12-27T12:52:35.929Z,45
2018-12-27T12:53:36.893Z,50
2018-12-27T12:54:35.907Z,50
2018-12-27T12:55:35.905Z,50
2018-12-27T12:56:35.891Z,50
2018-12-27T12:57:35.879Z,50
2018-12-27T12:58:35.864Z,50
2018-12-27T12:59:35.854Z,50
2018-12-27T13:00:35.845Z,50
2018-12-27T13:01:35.832Z,55
2018-12-27T13:02:35.820Z,55
2018-12-27T13:03:35.814Z,55
2018-12-27T13:04:35.796Z,55
2018-12-27T13:05:35.786Z,55
2018-12-27T13:06:35.781Z,55
2018-12-27T13:07:35.832Z,55
2018-12-27T13:08:35.760Z,55
2018-12-27T13:09:35.742Z,55
2018-12-27T13:10:35.733Z,55
2018-12-27T13:11:35.718Z,50
2018-12-27T13:12:35.710Z,45
2018-12-27T13:13:35.458Z,45
2018-12-27T13:14:35.688Z,40
2018-12-27T13:15:35.678Z,40
2018-12-27T13:16:35.665Z,40
2018-12-27T13:17:35.652Z,40
2018-12-27T13:18:35.657Z,45
2018-12-27T13:19:35.629Z,40
2018-12-27T13:20:35.627Z,40
2018-12-27T13:21:35.614Z,45
2018-12-27T13:22:35.596Z,40
2018-12-27T13:23:35.349Z,45
2018-12-27T13:24:35.578Z,45
2018-12-27T13:25:35.565Z,50
2018-12-27T13:26:35.557Z,50
2018-12-27T13:27:35.539Z,45
2018-12-27T13:28:35.655Z,45
2018-12-27T13:29:35.519Z,45
2018-12-27T13:30:35.508Z,45
2018-12-27T13:31:35.494Z,45
2018-12-27T13:32:35.507Z,50
2018-12-27T13:33:35.481Z,50
2018-12-27T13:34:36.064Z,55
2018-12-27T13:35:35.459Z,45
2018-12-27T13:36:35.441Z,50
2018-12-27T13:37:35.430Z,50
2018-12-27T13:38:35.423Z,50
2018-12-27T13:39:35.407Z,45
2018-12-27T13:40:35.396Z,45
2018-12-27T13:41:35.388Z,40
2018-12-27T13:42:35.372Z,40
2018-12-27T13:43:35.373Z,35
2018-12-27T13:44:35.351Z,35
2018-12-27T13:45:35.341Z,35
2018-12-27T13:46:35.095Z,35
2018-12-27T13:47:35.317Z,30
2018-12-27T13:48:35.311Z,30
2018-12-27T13:49:35.294Z,30
2018-12-27T13:50:35.285Z,25
2018-12-27T13:51:35.283Z,25
2018-12-27T13:52:35.284Z,25
2018-12-27T13:53:35.251Z,25
2018-12-27T13:54:35.246Z,25
2018-12-27T13:55:35.231Z,20
2018-12-27T13:56:35.217Z,20
2018-12-27T13:57:35.207Z,15
2018-12-27T13:58:35.201Z,20
2018-12-27T13:59:35.182Z,15
2018-12-27T14:00:35.176Z,15
2018-12-27T14:01:35.168Z,15
2018-12-27T14:02:35.154Z,15
2018-12-27T14:03:35.143Z,15
2018-12-27T14:04:35.129Z,15
2018-12-27T14:05:35.120Z,15
2018-12-27T14:06:42.135Z,10
2018-12-27T14:07:35.093Z,15
2018-12-27T14:08:35.082Z,15
2018-12-27T14:09:35.069Z,10
2018-12-27T14:10:35.119Z,15
2018-12-27T14:11:34.808Z,10
2018-12-27T14:12:35.041Z,10
2018-12-27T14:13:35.032Z,10
2018-12-27T14:14:35.017Z,10
2018-12-27T14:15:35.004Z,10
2018-12-27T14:16:34.996Z,10
2018-12-27T14:17:34.977Z,10
2018-12-27T14:18:34.969Z,10
2018-12-27T14:19:34.962Z,10
2018-12-27T14:20:34.949Z,10
2018-12-27T14:21:34.947Z,10
2018-12-27T14:22:34.928Z,10
2018-12-27T14:23:34.926Z,10
2018-12-27T14:24:34.914Z,10
2018-12-27T14:25:34.891Z,10
2018-12-27T14:26:34.881Z,10
2018-12-27T14:27:34.869Z,10
2018-12-27T14:28:34.857Z,10
2018-12-27T14:29:34.850Z,10
2018-12-27T14:30:34.838Z,5